Airfield :
LOGIN :

Register | Disclaimer

   EN    FR    IT 

 










Legend :    VFR   Marginal VFR   IFR   Intensive IFR   Very Intensive IFR
Visi :
Ceiling :
>= 8 km
>= 3000ft
5 to 8 km
1000 to 3000 ft
1500m to 5 km
500 to 1000 ft
800 to 1500m
200 to 500 ft
< 800m
< 200 ft
Symbols :   Thunderstorms  Fog  Heavy snow  Heavy precipitations  Wind > 20 kt
SIGMETs :     Misc.  Thunderstorms  Icing  Turbulence  Mountain Waves  Volcanic Ashes






- Airport Elevation : 1906 ft
- IATA code : INN


LOWI - Innsbruck

CURRENT METAR :
  • 110350Z 27008KT 9999 FEW070 BKN100 07/01 Q1014 WS R26 NOSIG

EXPIRED METARs :
  • 110320Z AUTO 26007KT 9999 FEW070 OVC090 07/01 Q1014
  • 110250Z AUTO 27007KT 9999 FEW090 BKN100 07/01 Q1014
  • 110220Z AUTO 25007KT 160V290 9999 FEW090 OVC100 07/00 Q1014
  • 110150Z AUTO 27009KT 9999 FEW100 BKN110 07/01 Q1014
  • 110120Z AUTO 26008KT 190V320 9999 FEW110 BKN120 08/00 Q1014

TAF AMD TAF LOWI
Valid from the 11 at 03:00 until the 12 at 00:00 UTC


110331Z 1103/1124 27007KT 9999 FEW080 TX17/1111Z TN09/1105Z
BECMG 1107/1109 12017G27KT
TEMPO 1109/1118 12025G45KT



MET'MAP, your aeronautical weather chart ! - Copyright ORBIFLY December 2007 - Disclaimer

ORBIFLY MET'MAP TEAM :

Programming & Development : Alexandra Zaïnal
Concept & original design : Baudouin d'Aumeries
Assistance for programming : Marc-Olivier Méhu
Technical & hardware support : Manuel Goepfert

Contact : metmap@orbifly.com




SOURCES & CREDITS :

   NOAA